Time;durP1;ratioP1;P1;durP2;ratioP2;P2;SDS_P1;SDS_P2;PMS_P1;PMS_P2;Temp;Humidity;BMP_temperature;BMP_pressure;BME280_temperature;BME280_humidity;BME280_pressure;Samples;Min_cycle;Max_cycle;Signal;HPM_P1;HPM_P2
2024/01/15 00:01:27;;;;;;;16.77;8.53;;;-1.50;99.90;;;;;;5110998;28;20213;-73
2024/01/15 00:03:53;;;;;;;15.40;8.70;;;-1.40;99.90;;;;;;5129472;28;20455;-74
2024/01/15 00:06:18;;;;;;;24.47;9.73;;;-1.40;99.90;;;;;;5129453;28;20181;-73
2024/01/15 00:08:44;;;;;;;19.10;9.37;;;-1.40;99.90;;;;;;5110889;28;20200;-74
2024/01/15 00:11:09;;;;;;;14.97;8.23;;;-1.30;99.90;;;;;;5110928;28;20181;-73
2024/01/15 00:13:35;;;;;;;18.70;9.13;;;-1.30;99.90;;;;;;5129476;28;20212;-74
2024/01/15 00:16:00;;;;;;;19.73;8.47;;;-1.30;99.90;;;;;;5111060;28;20687;-73
2024/01/15 00:18:26;;;;;;;23.80;9.80;;;-1.30;99.90;;;;;;5110955;28;20274;-73
2024/01/15 00:20:52;;;;;;;21.67;9.97;;;-1.20;99.90;;;;;;5129767;28;20645;-73
2024/01/15 00:23:17;;;;;;;19.93;10.00;;;-1.20;99.90;;;;;;5094369;28;20245;-73
2024/01/15 00:25:43;;;;;;;20.80;9.67;;;-1.20;99.90;;;;;;5094514;28;20670;-73
2024/01/15 00:28:08;;;;;;;16.57;9.17;;;-1.20;99.90;;;;;;5110885;28;20249;-73
2024/01/15 00:30:34;;;;;;;18.33;8.40;;;-1.20;99.90;;;;;;5130601;27;20185;-72
2024/01/15 00:32:59;;;;;;;14.37;8.30;;;-1.30;99.90;;;;;;5115146;27;20242;-73
2024/01/15 00:35:25;;;;;;;16.00;8.67;;;-1.20;99.90;;;;;;5133691;27;20203;-73
2024/01/15 00:37:51;;;;;;;16.37;7.67;;;-1.20;99.90;;;;;;5133050;27;20630;-73
2024/01/15 00:40:16;;;;;;;17.57;7.80;;;-1.20;99.90;;;;;;5114448;27;20189;-73
2024/01/15 00:42:42;;;;;;;19.83;9.63;;;-1.10;99.90;;;;;;5132923;27;20547;-73
2024/01/15 00:45:08;;;;;;;18.50;9.32;;;-1.10;99.90;;;;;;5114542;27;20250;-73
2024/01/15 00:47:34;;;;;;;16.10;8.30;;;-1.00;99.90;;;;;;5132655;27;20207;-72
2024/01/15 00:50:00;;;;;;;18.48;8.82;;;-1.10;99.90;;;;;;5114326;27;20284;-73
2024/01/15 00:52:26;;;;;;;21.40;8.57;;;-1.00;99.90;;;;;;5096986;27;20284;-73
2024/01/15 00:54:51;;;;;;;17.20;8.50;;;-1.00;99.90;;;;;;5114503;27;20430;-72
2024/01/15 00:57:18;;;;;;;16.40;7.33;;;-1.00;99.90;;;;;;5096871;27;20243;-73
2024/01/15 00:59:44;;;;;;;17.38;7.85;;;-1.00;99.90;;;;;;5114374;27;20967;-73
2024/01/15 01:02:10;;;;;;;15.95;7.60;;;-1.10;99.90;;;;;;5113796;27;20284;-73
2024/01/15 01:04:36;;;;;;;17.53;8.70;;;-1.00;99.90;;;;;;5132190;27;20299;-73
2024/01/15 01:07:02;;;;;;;15.07;8.70;;;-1.10;99.90;;;;;;5096803;27;20280;-73
2024/01/15 01:09:29;;;;;;;13.87;6.27;;;-1.00;99.90;;;;;;5113776;27;20223;-73
2024/01/15 01:11:56;;;;;;;17.92;8.57;;;-1.00;99.90;;;;;;5132155;27;20173;-73
2024/01/15 01:14:22;;;;;;;13.20;7.03;;;-1.00;99.90;;;;;;5132330;27;20234;-73
2024/01/15 01:16:47;;;;;;;13.23;6.10;;;-1.00;99.90;;;;;;5113570;27;20652;-73
2024/01/15 01:19:13;;;;;;;21.60;8.10;;;-1.00;99.90;;;;;;5132032;27;20491;-73
2024/01/15 01:21:39;;;;;;;14.43;6.67;;;-0.90;99.90;;;;;;5132099;27;20186;-73
2024/01/15 01:24:05;;;;;;;13.13;6.93;;;-1.00;99.90;;;;;;5113645;27;20465;-72
2024/01/15 01:26:31;;;;;;;14.90;7.30;;;-0.90;99.90;;;;;;5132278;27;20933;-73
2024/01/15 01:28:56;;;;;;;16.40;6.73;;;-0.90;99.90;;;;;;5113725;27;20193;-73
2024/01/15 01:31:23;;;;;;;16.97;7.93;;;-0.80;99.90;;;;;;5113506;27;20670;-73
2024/01/15 01:33:49;;;;;;;16.65;8.32;;;-0.70;99.90;;;;;;5132097;27;20185;-73
2024/01/15 01:36:15;;;;;;;21.20;8.20;;;-0.80;99.90;;;;;;5113170;27;20203;-73
2024/01/15 01:38:41;;;;;;;16.80;7.50;;;-0.70;99.90;;;;;;5131553;27;20197;-73
2024/01/15 01:41:07;;;;;;;13.65;6.80;;;-0.80;99.90;;;;;;5131821;27;20411;-73
2024/01/15 01:43:33;;;;;;;19.30;8.07;;;-0.80;99.90;;;;;;5130760;27;20200;-73
2024/01/15 01:46:00;;;;;;;15.10;7.43;;;-0.90;99.90;;;;;;5131607;27;20403;-73
2024/01/15 01:48:26;;;;;;;17.40;7.82;;;-0.80;99.90;;;;;;5131500;27;20479;-73
2024/01/15 01:50:57;;;;;;;18.15;8.45;;;-0.90;99.90;;;;;;5131650;27;20180;-73
2024/01/15 01:53:24;;;;;;;12.90;6.88;;;-0.90;99.90;;;;;;5131595;27;20202;-73
2024/01/15 01:55:50;;;;;;;14.50;7.70;;;-0.90;99.90;;;;;;5131429;27;20176;-73
2024/01/15 01:58:16;;;;;;;15.85;8.68;;;-1.00;99.90;;;;;;5112728;27;20235;-73
2024/01/15 02:00:43;;;;;;;13.88;6.88;;;-1.00;99.90;;;;;;5131268;27;20184;-73
2024/01/15 02:03:09;;;;;;;14.50;7.78;;;-1.00;99.90;;;;;;5112471;27;20188;-73
2024/01/15 02:05:36;;;;;;;13.18;6.70;;;-1.00;99.90;;;;;;5131832;27;20189;-73
2024/01/15 02:08:01;;;;;;;14.95;7.22;;;-1.00;99.90;;;;;;5131066;27;20204;-73
2024/01/15 02:10:27;;;;;;;16.00;7.63;;;-0.90;99.90;;;;;;5131171;27;20182;-73
2024/01/15 02:12:52;;;;;;;14.00;7.07;;;-0.90;99.90;;;;;;5112386;27;20248;-73
2024/01/15 02:15:18;;;;;;;14.70;7.60;;;-0.90;99.90;;;;;;5112976;27;20188;-73
2024/01/15 02:18:01;;;;;;;18.07;7.90;;;-0.90;99.90;;;;;;5130936;27;20958;-72
2024/01/15 02:20:27;;;;;;;17.10;6.97;;;-0.90;99.90;;;;;;5112274;27;20193;-73
2024/01/15 02:22:53;;;;;;;15.27;7.10;;;-1.00;99.90;;;;;;5130944;27;20177;-73
2024/01/15 02:25:19;;;;;;;17.60;7.67;;;-1.00;99.90;;;;;;5130752;27;20225;-73
2024/01/15 02:27:45;;;;;;;11.60;6.00;;;-0.90;99.90;;;;;;5130784;27;20445;-74
2024/01/15 02:30:12;;;;;;;14.25;6.70;;;-0.90;99.90;;;;;;5131020;27;20781;-73
2024/01/15 02:32:38;;;;;;;16.98;6.95;;;-1.00;99.90;;;;;;5112254;27;20177;-73
2024/01/15 02:35:04;;;;;;;14.13;6.82;;;-0.90;99.90;;;;;;5130644;27;20254;-73
2024/01/15 02:37:30;;;;;;;10.07;5.15;;;-0.90;99.90;;;;;;5130464;27;20766;-73
2024/01/15 02:39:55;;;;;;;14.90;7.33;;;-0.90;99.90;;;;;;5130826;27;20197;-73
2024/01/15 02:42:21;;;;;;;16.87;6.97;;;-0.90;99.90;;;;;;5130435;27;20272;-73
2024/01/15 02:44:48;;;;;;;15.17;7.00;;;-0.90;99.90;;;;;;5111866;27;20209;-72
2024/01/15 02:47:14;;;;;;;15.88;7.90;;;-0.90;99.90;;;;;;5130423;27;20266;-73
2024/01/15 02:49:40;;;;;;;15.57;7.00;;;-1.00;99.90;;;;;;5130404;27;20564;-73
2024/01/15 02:52:06;;;;;;;15.30;6.87;;;-1.00;99.90;;;;;;5130284;27;20203;-73
2024/01/15 02:54:31;;;;;;;14.30;7.20;;;-1.00;99.90;;;;;;5111579;27;20524;-73
2024/01/15 02:56:57;;;;;;;12.10;6.50;;;-0.90;99.90;;;;;;5130143;27;20201;-73
2024/01/15 02:59:22;;;;;;;15.03;7.83;;;-1.00;99.90;;;;;;5130099;27;20229;-74
2024/01/15 03:01:48;;;;;;;16.43;7.67;;;-1.00;99.90;;;;;;5111803;27;20626;-74
2024/01/15 03:04:13;;;;;;;13.90;6.73;;;-1.00;99.90;;;;;;5111502;27;20221;-73
2024/01/15 03:06:39;;;;;;;19.10;7.53;;;-0.90;99.90;;;;;;5130217;27;20536;-73
2024/01/15 03:09:05;;;;;;;17.77;7.20;;;-0.90;99.90;;;;;;5111484;27;20205;-73
2024/01/15 03:11:37;;;;;;;15.80;7.35;;;-0.90;99.90;;;;;;5094336;27;20176;-74
2024/01/15 03:14:03;;;;;;;11.73;6.55;;;-0.90;99.90;;;;;;5129911;27;20184;-74
2024/01/15 03:16:29;;;;;;;13.10;7.10;;;-1.00;99.90;;;;;;5129982;27;20173;-73
2024/01/15 03:18:54;;;;;;;16.60;6.13;;;-0.90;99.90;;;;;;5111298;27;20280;-73
2024/01/15 03:21:20;;;;;;;20.57;8.17;;;-1.00;99.90;;;;;;5129810;27;20934;-73
2024/01/15 03:23:45;;;;;;;12.23;6.60;;;-1.00;99.90;;;;;;5094183;27;20215;-73
2024/01/15 03:26:11;;;;;;;14.47;7.13;;;-1.00;99.90;;;;;;5129962;27;20181;-73
2024/01/15 03:28:36;;;;;;;13.90;7.63;;;-1.00;99.90;;;;;;5111170;27;20205;-73
2024/01/15 03:31:02;;;;;;;15.77;7.63;;;-1.00;99.90;;;;;;5129657;27;20186;-72
2024/01/15 03:33:28;;;;;;;11.63;6.37;;;-1.00;99.90;;;;;;5129562;27;20213;-73
2024/01/15 03:35:53;;;;;;;12.77;6.00;;;-0.90;99.90;;;;;;5129597;27;20411;-73
2024/01/15 03:38:19;;;;;;;16.37;7.60;;;-0.90;99.90;;;;;;5129649;27;20201;-73
2024/01/15 03:40:44;;;;;;;14.10;7.47;;;-0.90;99.90;;;;;;5129597;27;20264;-73
2024/01/15 03:43:10;;;;;;;18.63;7.87;;;-0.80;99.90;;;;;;5111378;27;20198;-73
2024/01/15 03:45:36;;;;;;;11.00;5.93;;;-0.80;99.90;;;;;;5111251;28;20209;-73
2024/01/15 03:48:01;;;;;;;17.83;7.50;;;-0.90;99.90;;;;;;5111309;28;20215;-73
2024/01/15 03:50:27;;;;;;;11.30;5.90;;;-0.90;99.90;;;;;;5129991;27;20277;-73
2024/01/15 03:52:52;;;;;;;14.90;6.90;;;-0.80;99.90;;;;;;5094341;28;20189;-73
2024/01/15 03:55:18;;;;;;;14.90;7.23;;;-0.80;99.90;;;;;;5094480;28;20261;-74
2024/01/15 03:57:43;;;;;;;18.33;7.67;;;-0.80;99.90;;;;;;5111389;28;20203;-73
2024/01/15 04:00:09;;;;;;;13.40;6.20;;;-0.80;99.90;;;;;;5111230;28;20177;-74
2024/01/15 04:02:35;;;;;;;14.30;6.93;;;-0.60;99.90;;;;;;5129338;28;20237;-73
2024/01/15 04:05:01;;;;;;;21.07;7.67;;;-0.70;99.90;;;;;;5129547;27;20217;-73
2024/01/15 04:07:26;;;;;;;18.50;8.60;;;-0.80;99.90;;;;;;5133799;27;20580;-74
2024/01/15 04:09:52;;;;;;;15.50;7.00;;;-0.70;99.90;;;;;;5133969;27;20186;-74
2024/01/15 04:12:17;;;;;;;15.00;7.50;;;-0.70;99.90;;;;;;5133785;27;20256;-73
2024/01/15 04:14:43;;;;;;;14.77;7.23;;;-0.70;99.90;;;;;;5133517;27;20188;-73
2024/01/15 04:17:08;;;;;;;19.23;7.40;;;-0.70;99.90;;;;;;5098102;27;20712;-73
2024/01/15 04:19:34;;;;;;;15.50;7.70;;;-0.70;99.90;;;;;;5133421;27;20223;-73
2024/01/15 04:21:59;;;;;;;16.83;7.60;;;-0.70;99.90;;;;;;5098226;27;20233;-72
2024/01/15 04:24:25;;;;;;;15.83;7.47;;;-0.70;99.90;;;;;;5115350;27;20204;-72
2024/01/15 04:26:51;;;;;;;16.83;7.50;;;-0.70;99.90;;;;;;5133532;27;20852;-73
2024/01/15 04:29:17;;;;;;;16.42;7.60;;;-0.70;99.90;;;;;;5114628;27;20208;-73
2024/01/15 04:31:42;;;;;;;19.73;8.60;;;-0.60;99.90;;;;;;5133762;27;20174;-73
2024/01/15 04:34:08;;;;;;;12.00;6.53;;;-0.60;99.90;;;;;;5114926;27;20179;-73
2024/01/15 04:36:39;;;;;;;16.60;7.37;;;-0.80;99.90;;;;;;5114641;27;20197;-73
2024/01/15 04:39:05;;;;;;;22.48;9.20;;;-0.70;99.90;;;;;;5097695;27;20730;-73
2024/01/15 04:41:30;;;;;;;20.33;9.13;;;-0.70;99.90;;;;;;5114398;27;20189;-73
2024/01/15 04:43:56;;;;;;;16.60;6.80;;;-0.70;99.90;;;;;;5133093;27;20550;-73
2024/01/15 04:46:21;;;;;;;18.20;8.63;;;-0.70;99.90;;;;;;5132982;27;20208;-73
2024/01/15 04:48:47;;;;;;;17.17;7.67;;;-0.80;99.90;;;;;;5133032;27;20338;-73
2024/01/15 04:51:13;;;;;;;18.20;8.10;;;-0.90;99.90;;;;;;5132996;27;20184;-73
2024/01/15 04:53:38;;;;;;;18.47;8.67;;;-0.80;99.90;;;;;;5114503;27;20268;-73
2024/01/15 04:56:04;;;;;;;18.33;8.33;;;-0.90;99.90;;;;;;5132697;27;20185;-74
2024/01/15 04:58:30;;;;;;;17.33;8.57;;;-0.90;99.90;;;;;;5132766;27;20236;-73
2024/01/15 05:00:55;;;;;;;16.10;8.00;;;-0.80;99.90;;;;;;5132463;27;20499;-73
2024/01/15 05:03:21;;;;;;;18.77;7.40;;;-0.80;99.90;;;;;;5113601;27;20182;-74
2024/01/15 05:05:46;;;;;;;19.03;8.47;;;-0.80;99.90;;;;;;5131782;27;20640;-73
2024/01/15 05:08:12;;;;;;;20.40;6.93;;;-0.90;99.90;;;;;;5096020;27;20205;-73
2024/01/15 05:10:38;;;;;;;14.73;7.13;;;-0.90;99.90;;;;;;5113025;27;20842;-73
2024/01/15 05:13:03;;;;;;;19.33;7.90;;;-0.90;99.90;;;;;;5112928;27;20204;-73
2024/01/15 05:15:29;;;;;;;16.17;8.80;;;-0.90;99.90;;;;;;5095724;27;20195;-74
2024/01/15 05:17:55;;;;;;;19.87;9.10;;;-1.00;99.90;;;;;;5129887;27;20212;-73
2024/01/15 05:20:20;;;;;;;20.87;7.73;;;-1.00;99.90;;;;;;5112765;27;20683;-74
2024/01/15 05:22:46;;;;;;;16.83;7.67;;;-1.00;99.90;;;;;;5113086;27;20189;-74
2024/01/15 05:25:12;;;;;;;19.03;9.03;;;-0.90;99.90;;;;;;5096051;27;20213;-74
2024/01/15 05:27:37;;;;;;;15.37;7.07;;;-0.90;99.90;;;;;;5130912;27;20699;-74
2024/01/15 05:30:03;;;;;;;14.80;7.23;;;-0.90;99.90;;;;;;5131054;27;20184;-74
2024/01/15 05:32:29;;;;;;;13.73;6.85;;;-0.80;99.90;;;;;;5095815;27;20652;-73
2024/01/15 05:34:55;;;;;;;13.90;6.67;;;-0.70;99.90;;;;;;5112454;27;20189;-73
2024/01/15 05:37:20;;;;;;;14.73;6.53;;;-0.70;99.90;;;;;;5130627;27;20273;-74
2024/01/15 05:39:46;;;;;;;14.07;6.50;;;-0.60;99.90;;;;;;5078511;27;20177;-74
2024/01/15 05:42:11;;;;;;;14.67;6.80;;;-0.60;99.90;;;;;;5131067;27;20188;-74
2024/01/15 05:44:37;;;;;;;11.50;6.60;;;-0.60;99.90;;;;;;5130928;27;20692;-73
2024/01/15 05:47:04;;;;;;;11.43;5.90;;;-0.50;99.90;;;;;;5111951;27;20191;-73
2024/01/15 05:49:29;;;;;;;10.45;5.25;;;-0.50;99.90;;;;;;5112202;27;20554;-74
2024/01/15 05:51:55;;;;;;;13.33;6.60;;;-0.50;99.90;;;;;;5130702;27;20189;-74
2024/01/15 05:54:21;;;;;;;12.53;6.87;;;-0.40;99.90;;;;;;5130550;27;20181;-73
2024/01/15 05:56:46;;;;;;;9.60;4.87;;;-0.40;99.90;;;;;;5130508;27;20208;-73
2024/01/15 05:59:12;;;;;;;11.40;5.50;;;-0.40;99.90;;;;;;5111827;27;20284;-74
2024/01/15 06:01:38;;;;;;;9.93;6.03;;;-0.30;99.90;;;;;;5130245;27;20184;-73
2024/01/15 06:04:03;;;;;;;8.43;4.73;;;-0.30;99.90;;;;;;5111947;27;20726;-73
2024/01/15 06:06:29;;;;;;;10.60;6.00;;;-0.20;99.90;;;;;;5130559;27;20173;-73
2024/01/15 06:08:54;;;;;;;13.60;6.13;;;-0.30;99.90;;;;;;5111791;27;20899;-74
2024/01/15 06:11:20;;;;;;;11.50;6.10;;;-0.30;99.90;;;;;;5112327;27;20188;-74
2024/01/15 06:13:45;;;;;;;13.60;6.97;;;-0.30;99.90;;;;;;5130632;27;20652;-73
2024/01/15 06:16:20;;;;;;;13.60;6.90;;;-0.30;99.90;;;;;;5095322;27;20269;-74
2024/01/15 06:18:45;;;;;;;13.23;8.18;;;-0.30;99.90;;;;;;5112669;27;20204;-74
2024/01/15 06:21:14;;;;;;;12.33;7.00;;;-0.30;99.90;;;;;;5130676;27;20233;-74
2024/01/15 06:23:40;;;;;;;14.60;6.90;;;-0.50;99.90;;;;;;5130513;27;20910;-72
2024/01/15 06:26:05;;;;;;;14.10;7.50;;;-0.50;99.90;;;;;;5130561;27;20181;-74
2024/01/15 06:28:31;;;;;;;16.40;8.77;;;-0.50;99.90;;;;;;5130089;27;20435;-73
2024/01/15 06:30:57;;;;;;;17.83;8.57;;;-0.60;99.90;;;;;;5112057;27;20177;-73
2024/01/15 06:33:23;;;;;;;15.50;7.07;;;-0.70;99.90;;;;;;5094916;27;20223;-74
2024/01/15 06:35:49;;;;;;;19.20;8.57;;;-0.80;99.90;;;;;;5111625;27;20177;-73
2024/01/15 06:38:15;;;;;;;16.73;7.32;;;-0.70;99.90;;;;;;5111495;27;20201;-74
2024/01/15 06:40:45;;;;;;;15.50;7.57;;;-0.80;99.90;;;;;;5094749;27;20180;-74
2024/01/15 06:43:11;;;;;;;16.45;8.10;;;-0.80;99.90;;;;;;5095232;27;20982;-74
2024/01/15 06:45:37;;;;;;;15.40;7.72;;;-0.80;99.90;;;;;;5130207;27;20209;-74
2024/01/15 06:48:03;;;;;;;14.70;7.50;;;-0.80;99.90;;;;;;5129657;27;20238;-73
2024/01/15 06:50:28;;;;;;;15.13;8.25;;;-0.80;99.90;;;;;;5129479;27;20184;-73
2024/01/15 06:52:54;;;;;;;15.13;7.70;;;-0.80;99.90;;;;;;5110948;27;20193;-74
2024/01/15 06:55:20;;;;;;;15.03;6.90;;;-0.80;99.90;;;;;;5129368;27;20271;-73
2024/01/15 06:57:45;;;;;;;14.23;7.50;;;-0.80;99.90;;;;;;5110652;27;20999;-73
2024/01/15 07:00:11;;;;;;;13.60;7.13;;;-0.70;99.90;;;;;;5129034;27;20181;-74
2024/01/15 07:02:37;;;;;;;14.98;8.25;;;-0.80;99.90;;;;;;5110640;27;20204;-74
2024/01/15 07:05:04;;;;;;;14.20;8.33;;;-0.80;99.90;;;;;;5129024;27;20687;-73
2024/01/15 07:07:31;;;;;;;10.80;6.78;;;-0.80;99.90;;;;;;5110652;27;21038;-74
2024/01/15 07:09:56;;;;;;;9.98;6.43;;;-0.70;99.90;;;;;;5110591;27;20280;-73
2024/01/15 07:12:22;;;;;;;12.30;6.40;;;-0.80;99.90;;;;;;5128745;27;20275;-73
2024/01/15 07:14:48;;;;;;;15.50;6.87;;;-0.70;99.90;;;;;;5110426;27;20181;-73
2024/01/15 07:17:13;;;;;;;10.57;5.93;;;-0.70;99.90;;;;;;5129676;27;20444;-73
2024/01/15 07:19:39;;;;;;;9.67;5.33;;;-0.70;99.90;;;;;;5129114;27;20181;-73
2024/01/15 07:22:04;;;;;;;16.30;6.87;;;-0.70;99.90;;;;;;5129249;27;20193;-73
2024/01/15 07:24:30;;;;;;;12.90;6.20;;;-0.70;99.90;;;;;;5129556;27;20291;-72
2024/01/15 07:26:55;;;;;;;11.63;6.37;;;-0.70;99.90;;;;;;5110927;27;20593;-73
2024/01/15 07:29:21;;;;;;;11.53;5.60;;;-0.70;99.90;;;;;;5110388;27;20279;-72
2024/01/15 07:31:51;;;;;;;9.80;4.77;;;-0.70;99.90;;;;;;5128829;27;20185;-73
2024/01/15 07:34:17;;;;;;;11.43;5.15;;;-0.60;99.90;;;;;;5128952;27;20189;-74
2024/01/15 07:36:46;;;;;;;11.38;5.57;;;-0.60;99.90;;;;;;5110153;27;20269;-73
2024/01/15 07:39:11;;;;;;;11.55;5.95;;;-0.60;99.90;;;;;;5109792;27;20204;-74
2024/01/15 07:41:37;;;;;;;11.30;5.30;;;-0.60;99.90;;;;;;5127767;27;20231;-74
2024/01/15 07:44:03;;;;;;;10.10;5.03;;;-0.50;99.90;;;;;;5128421;27;20252;-74
2024/01/15 07:46:29;;;;;;;11.43;5.67;;;-0.40;99.90;;;;;;5128009;27;20192;-74
2024/01/15 07:48:57;;;;;;;8.53;5.13;;;-0.40;99.90;;;;;;5128077;27;20439;-74
2024/01/15 07:51:24;;;;;;;5.10;3.22;;;-0.40;99.90;;;;;;5109455;28;20185;-72
2024/01/15 07:53:50;;;;;;;8.88;4.55;;;-0.40;99.90;;;;;;5128154;27;20180;-74
2024/01/15 07:56:15;;;;;;;6.80;3.72;;;-0.30;99.90;;;;;;5128043;28;20196;-74
2024/01/15 07:58:42;;;;;;;6.87;3.83;;;-0.30;99.90;;;;;;5109851;28;20205;-74
2024/01/15 08:01:08;;;;;;;6.97;4.05;;;-0.30;99.90;;;;;;5109380;28;20711;-73
2024/01/15 08:03:33;;;;;;;6.30;4.20;;;-0.20;99.90;;;;;;5127833;28;20261;-74
2024/01/15 08:05:59;;;;;;;7.60;4.80;;;-0.20;99.90;;;;;;5109753;28;20414;-74
2024/01/15 08:08:26;;;;;;;5.32;4.20;;;-0.20;99.90;;;;;;5128044;28;20208;-73
2024/01/15 08:10:56;;;;;;;8.43;4.05;;;-0.10;99.90;;;;;;5127939;28;20184;-74
2024/01/15 08:13:21;;;;;;;6.32;3.80;;;-0.10;99.90;;;;;;5128094;28;20174;-74
2024/01/15 08:15:47;;;;;;;7.00;3.63;;;0.00;99.90;;;;;;5092169;28;20204;-73
2024/01/15 08:18:12;;;;;;;6.13;3.47;;;0.00;99.90;;;;;;5128040;28;20201;-74
2024/01/15 08:20:38;;;;;;;6.10;3.80;;;0.00;99.90;;;;;;5127788;28;20213;-73
2024/01/15 08:23:04;;;;;;;7.63;3.57;;;0.10;99.90;;;;;;5109506;28;20272;-73
2024/01/15 08:25:30;;;;;;;5.30;3.42;;;0.10;99.90;;;;;;5127870;28;20211;-73
2024/01/15 08:27:58;;;;;;;4.37;2.87;;;0.10;99.90;;;;;;5127602;28;20299;-73
2024/01/15 08:30:27;;;;;;;6.00;3.03;;;0.20;99.90;;;;;;5109514;28;20180;-73
2024/01/15 08:32:53;;;;;;;5.13;2.92;;;0.20;99.90;;;;;;5109912;28;20640;-73
2024/01/15 08:35:22;;;;;;;7.93;4.22;;;0.30;99.90;;;;;;5109014;28;20181;-74
2024/01/15 08:37:49;;;;;;;4.25;2.88;;;0.30;99.90;;;;;;5092483;28;20233;-73
2024/01/15 08:40:15;;;;;;;6.63;3.67;;;0.30;99.90;;;;;;5109509;28;20267;-74
2024/01/15 08:42:41;;;;;;;3.92;2.80;;;0.40;99.90;;;;;;5110361;28;20185;-74
2024/01/15 08:45:07;;;;;;;4.80;3.00;;;0.40;99.90;;;;;;5128197;28;20292;-74
2024/01/15 08:47:34;;;;;;;8.75;3.00;;;0.50;99.90;;;;;;5127732;28;20263;-74
2024/01/15 08:50:00;;;;;;;6.70;3.10;;;0.40;99.90;;;;;;5127706;28;20201;-73
2024/01/15 08:52:26;;;;;;;3.63;2.80;;;0.40;99.90;;;;;;5130152;27;20403;-73
2024/01/15 08:54:52;;;;;;;5.67;3.03;;;0.50;99.90;;;;;;5131684;27;20192;-74
2024/01/15 08:57:17;;;;;;;6.40;3.00;;;0.50;99.90;;;;;;5095707;27;20436;-74
2024/01/15 08:59:43;;;;;;;6.70;2.93;;;0.60;99.90;;;;;;5131049;27;20414;-74
2024/01/15 09:02:09;;;;;;;6.00;3.40;;;0.70;99.90;;;;;;5131087;27;20185;-73
2024/01/15 09:04:34;;;;;;;4.93;3.37;;;0.70;99.90;;;;;;5131169;27;20209;-74
2024/01/15 09:07:00;;;;;;;4.60;3.13;;;0.70;99.90;;;;;;5112302;27;20721;-73
2024/01/15 09:09:26;;;;;;;6.93;3.60;;;0.70;99.90;;;;;;5112681;27;20268;-73
2024/01/15 09:11:51;;;;;;;4.60;2.83;;;0.70;99.90;;;;;;5112567;27;20225;-73
2024/01/15 09:14:17;;;;;;;6.03;3.10;;;0.70;99.90;;;;;;5095391;27;20188;-73
2024/01/15 09:16:43;;;;;;;3.80;2.80;;;0.80;99.90;;;;;;5112545;27;20177;-74
2024/01/15 09:19:09;;;;;;;4.73;4.13;;;0.90;99.90;;;;;;5130837;27;20664;-73
2024/01/15 09:21:34;;;;;;;8.73;5.20;;;0.90;99.90;;;;;;5130854;27;20189;-74
2024/01/15 09:24:00;;;;;;;4.10;2.90;;;0.90;99.90;;;;;;5095446;27;20217;-73
2024/01/15 09:26:26;;;;;;;7.27;3.87;;;1.00;99.90;;;;;;5095226;27;20196;-73
2024/01/15 09:28:52;;;;;;;7.07;5.00;;;1.00;99.90;;;;;;5112195;27;20228;-73
2024/01/15 09:31:19;;;;;;;4.93;3.25;;;1.10;99.90;;;;;;5112340;27;20200;-73
2024/01/15 09:33:45;;;;;;;5.60;2.88;;;1.10;99.90;;;;;;5111924;27;20277;-73
2024/01/15 09:36:10;;;;;;;8.57;3.07;;;1.00;99.90;;;;;;5112165;27;20272;-74
2024/01/15 09:38:36;;;;;;;4.60;2.77;;;1.10;99.90;;;;;;5130324;27;20197;-73
2024/01/15 09:41:02;;;;;;;4.57;2.47;;;1.00;99.90;;;;;;5130465;27;20201;-73
2024/01/15 09:43:27;;;;;;;5.23;2.60;;;1.00;99.90;;;;;;5111896;27;20183;-73
2024/01/15 09:45:54;;;;;;;8.83;2.37;;;1.10;99.90;;;;;;5130178;27;20178;-73
2024/01/15 09:48:20;;;;;;;4.65;2.28;;;1.20;99.90;;;;;;5130343;27;20200;-73
2024/01/15 09:50:46;;;;;;;3.60;1.90;;;1.20;99.90;;;;;;5077879;27;20200;-74
2024/01/15 09:53:14;;;;;;;1.97;1.57;;;1.30;99.90;;;;;;5130091;27;20185;-73
2024/01/15 09:55:41;;;;;;;2.08;1.73;;;1.30;99.90;;;;;;5111610;27;20196;-73
2024/01/15 09:58:07;;;;;;;3.10;2.22;;;1.30;99.90;;;;;;5111558;27;20207;-73
2024/01/15 10:00:36;;;;;;;2.73;1.80;;;1.20;99.90;;;;;;5130268;27;20236;-72
2024/01/15 10:03:03;;;;;;;1.55;1.13;;;1.40;99.90;;;;;;5110792;27;20957;-73
2024/01/15 10:05:29;;;;;;;4.55;1.63;;;1.30;99.90;;;;;;5111591;27;20214;-73
2024/01/15 10:07:57;;;;;;;1.60;1.50;;;1.30;99.90;;;;;;5129975;27;20205;-73
2024/01/15 10:10:23;;;;;;;1.65;1.55;;;1.40;99.90;;;;;;5095171;27;20881;-73
2024/01/15 10:12:49;;;;;;;1.60;1.50;;;1.50;99.90;;;;;;5129945;27;20173;-73
2024/01/15 10:15:17;;;;;;;2.72;1.40;;;1.40;99.90;;;;;;5111648;27;20195;-73
2024/01/15 10:17:42;;;;;;;7.82;1.63;;;1.40;99.90;;;;;;5130303;27;20205;-73
2024/01/15 10:20:11;;;;;;;2.33;1.77;;;1.40;99.90;;;;;;5094671;27;20188;-73
2024/01/15 10:22:46;;;;;;;1.40;1.25;;;1.40;99.90;;;;;;5111233;27;20276;-73
2024/01/15 10:25:13;;;;;;;2.53;2.13;;;1.40;99.90;;;;;;5129713;27;20295;-74
2024/01/15 10:27:40;;;;;;;2.10;1.70;;;1.60;99.90;;;;;;5111017;27;20254;-73
2024/01/15 10:30:06;;;;;;;6.90;3.65;;;1.70;99.90;;;;;;5111704;27;20548;-73
2024/01/15 10:32:32;;;;;;;2.00;1.60;;;1.70;99.90;;;;;;5129870;27;20971;-73
2024/01/15 10:34:57;;;;;;;2.47;2.27;;;1.70;99.90;;;;;;5111391;27;20220;-73
2024/01/15 10:37:24;;;;;;;5.50;2.50;;;1.70;99.90;;;;;;5129501;27;20256;-74
2024/01/15 10:39:51;;;;;;;3.42;2.05;;;1.70;99.90;;;;;;5129761;27;20177;-73
2024/01/15 10:42:18;;;;;;;2.40;1.67;;;1.70;99.90;;;;;;5111232;27;20177;-73
2024/01/15 10:44:44;;;;;;;4.82;3.20;;;1.70;99.90;;;;;;5129800;27;20677;-73
2024/01/15 10:47:11;;;;;;;3.45;2.78;;;1.70;99.90;;;;;;5129321;27;20980;-73
2024/01/15 10:49:37;;;;;;;7.75;6.13;;;1.70;99.90;;;;;;5129311;27;20314;-73
2024/01/15 10:52:03;;;;;;;5.80;2.47;;;1.70;99.90;;;;;;5129355;27;20287;-73
2024/01/15 10:54:29;;;;;;;7.82;3.92;;;1.80;99.90;;;;;;5111063;27;20232;-73
2024/01/15 10:56:56;;;;;;;16.67;10.30;;;1.80;99.90;;;;;;5129312;27;20189;-73
2024/01/15 10:59:25;;;;;;;9.82;5.57;;;1.80;99.90;;;;;;5129564;27;20435;-73
2024/01/15 11:01:54;;;;;;;5.25;3.33;;;1.80;99.90;;;;;;5094996;27;20193;-74
2024/01/15 11:04:21;;;;;;;7.32;5.25;;;1.80;99.90;;;;;;5129596;27;20296;-74
2024/01/15 11:06:52;;;;;;;8.20;2.20;;;1.80;99.90;;;;;;5111362;27;20208;-73
2024/01/15 11:09:18;;;;;;;4.90;2.53;;;1.80;99.90;;;;;;5111480;27;20185;-72
2024/01/15 11:11:46;;;;;;;7.70;2.63;;;1.80;99.90;;;;;;5094264;27;20352;-73
2024/01/15 11:14:38;;;;;;;4.03;2.80;;;1.80;99.90;;;;;;5110650;27;20185;-73
2024/01/15 11:17:05;;;;;;;5.80;2.72;;;1.90;99.90;;;;;;5093824;27;20185;-73
2024/01/15 11:19:50;;;;;;;10.23;6.93;;;1.90;99.90;;;;;;5129184;27;20257;-73
2024/01/15 11:22:30;;;;;;;4.72;3.65;;;1.80;99.90;;;;;;5129356;27;20181;-73
2024/01/15 11:24:57;;;;;;;11.98;3.70;;;1.80;99.90;;;;;;5128970;27;20578;-73
2024/01/15 11:27:52;;;;;;;10.55;5.35;;;1.80;99.90;;;;;;5128913;27;20579;-73
2024/01/15 11:30:22;;;;;;;8.68;5.32;;;1.80;99.90;;;;;;5129062;27;20173;-72
2024/01/15 11:32:47;;;;;;;2.47;1.48;;;1.80;99.90;;;;;;5110500;27;20218;-73
2024/01/15 11:35:14;;;;;;;4.53;2.60;;;1.70;99.90;;;;;;5128934;27;20746;-74
2024/01/15 11:37:54;;;;;;;6.70;3.95;;;1.70;99.90;;;;;;5128611;27;20235;-73
2024/01/15 11:40:20;;;;;;;7.35;2.35;;;1.60;99.90;;;;;;5109891;27;20190;-74
2024/01/15 11:42:47;;;;;;;3.33;2.58;;;1.60;99.90;;;;;;5128681;27;20181;-73
2024/01/15 11:45:15;;;;;;;2.03;1.88;;;1.60;99.90;;;;;;5128335;27;20310;-73
2024/01/15 11:48:09;;;;;;;2.17;1.75;;;1.50;99.90;;;;;;5128861;27;20685;-73
2024/01/15 11:50:35;;;;;;;3.00;2.00;;;1.50;99.90;;;;;;5128233;27;20188;-74
2024/01/15 11:53:03;;;;;;;4.63;2.77;;;1.60;99.90;;;;;;5128155;27;20179;-74
2024/01/15 11:55:38;;;;;;;7.38;1.83;;;1.60;99.90;;;;;;5128121;27;20431;-74
2024/01/15 11:58:11;;;;;;;5.00;1.77;;;1.60;99.90;;;;;;5110100;28;20196;-74
2024/01/15 12:00:55;;;;;;;4.82;2.13;;;1.70;99.90;;;;;;5110246;28;20182;-74
2024/01/15 12:03:22;;;;;;;2.20;2.00;;;1.60;99.90;;;;;;5109640;28;20186;-74
2024/01/15 12:05:48;;;;;;;2.28;2.03;;;1.50;99.90;;;;;;5109502;28;20208;-74
2024/01/15 12:08:13;;;;;;;3.80;2.30;;;1.50;99.90;;;;;;5127844;28;20563;-73
2024/01/15 12:10:40;;;;;;;19.47;2.90;;;1.40;99.90;;;;;;5109333;28;20547;-73
2024/01/15 12:13:13;;;;;;;2.63;2.42;;;1.30;99.90;;;;;;5092199;28;20282;-74
2024/01/15 12:15:42;;;;;;;5.72;2.53;;;1.30;99.90;;;;;;5109389;28;20184;-73
2024/01/15 12:18:09;;;;;;;6.10;2.40;;;1.40;99.90;;;;;;5093299;28;20198;-73
2024/01/15 12:20:35;;;;;;;3.80;2.45;;;1.40;99.90;;;;;;5109602;28;20702;-73
2024/01/15 12:23:05;;;;;;;5.43;2.80;;;1.30;99.90;;;;;;5128074;28;20174;-73
2024/01/15 12:25:32;;;;;;;6.32;3.05;;;1.40;99.90;;;;;;5093753;27;21133;-73
2024/01/15 12:27:58;;;;;;;3.25;2.53;;;1.40;99.90;;;;;;5131123;27;20201;-73
2024/01/15 12:30:24;;;;;;;3.42;1.65;;;1.40;99.90;;;;;;5113583;27;20208;-74
2024/01/15 12:32:50;;;;;;;4.00;2.63;;;1.30;99.90;;;;;;5131801;27;20213;-74
2024/01/15 12:35:16;;;;;;;2.40;2.20;;;1.40;99.90;;;;;;5113086;27;20210;-73
2024/01/15 12:37:42;;;;;;;4.43;2.60;;;1.30;99.90;;;;;;5131770;27;20775;-73
2024/01/15 12:40:10;;;;;;;2.88;2.38;;;1.30;99.90;;;;;;5131707;27;20216;-73